sensor_id;sensor_type;location;lat;lon;timestamp;pressure;altitude;pressure_sealevel;temperature;humidity
11038;BME280;5572;49.540;11.932;2023-02-15T00:00:33;99698.19;;;0.02;100.00
11038;BME280;5572;49.540;11.932;2023-02-15T00:03:14;99694.59;;;-0.06;100.00
11038;BME280;5572;49.540;11.932;2023-02-15T00:05:43;99704.28;;;0.12;100.00
11038;BME280;5572;49.540;11.932;2023-02-15T00:08:20;99695.88;;;-0.10;100.00
11038;BME280;5572;49.540;11.932;2023-02-15T00:11:04;99711.13;;;-0.12;100.00
11038;BME280;5572;49.540;11.932;2023-02-15T00:13:44;99735.28;;;-0.06;100.00
11038;BME280;5572;49.540;11.932;2023-02-15T00:16:12;99738.47;;;0.07;100.00
11038;BME280;5572;49.540;11.932;2023-02-15T00:18:44;99729.34;;;0.09;100.00
11038;BME280;5572;49.540;11.932;2023-02-15T00:21:11;99749.03;;;0.26;100.00
11038;BME280;5572;49.540;11.932;2023-02-15T00:23:38;99718.44;;;0.12;100.00
11038;BME280;5572;49.540;11.932;2023-02-15T00:26:06;99702.94;;;0.08;100.00
11038;BME280;5572;49.540;11.932;2023-02-15T00:28:36;99693.81;;;0.10;100.00
11038;BME280;5572;49.540;11.932;2023-02-15T00:31:11;99687.28;;;-0.04;100.00
11038;BME280;5572;49.540;11.932;2023-02-15T00:33:50;99687.38;;;-0.23;100.00
11038;BME280;5572;49.540;11.932;2023-02-15T00:36:26;99704.53;;;-0.08;100.00
11038;BME280;5572;49.540;11.932;2023-02-15T00:38:53;99717.72;;;0.20;100.00
11038;BME280;5572;49.540;11.932;2023-02-15T00:41:20;99685.84;;;0.10;100.00
11038;BME280;5572;49.540;11.932;2023-02-15T00:43:47;99683.81;;;0.22;100.00
11038;BME280;5572;49.540;11.932;2023-02-15T00:46:17;99654.81;;;0.01;100.00
11038;BME280;5572;49.540;11.932;2023-02-15T00:48:46;99657.06;;;-0.03;100.00
11038;BME280;5572;49.540;11.932;2023-02-15T00:51:28;99611.78;;;-0.38;100.00
11038;BME280;5572;49.540;11.932;2023-02-15T00:54:01;99628.13;;;-0.33;100.00
11038;BME280;5572;49.540;11.932;2023-02-15T00:56:31;99671.59;;;0.02;100.00
11038;BME280;5572;49.540;11.932;2023-02-15T00:58:58;99658.41;;;0.10;100.00
11038;BME280;5572;49.540;11.932;2023-02-15T01:01:25;99646.88;;;0.19;100.00
11038;BME280;5572;49.540;11.932;2023-02-15T01:03:54;99603.28;;;-0.15;100.00
11038;BME280;5572;49.540;11.932;2023-02-15T01:06:21;99600.78;;;0.01;100.00
11038;BME280;5572;49.540;11.932;2023-02-15T01:08:55;99586.09;;;-0.20;100.00
11038;BME280;5572;49.540;11.932;2023-02-15T01:11:28;99595.63;;;-0.01;100.00
11038;BME280;5572;49.540;11.932;2023-02-15T01:13:57;99576.06;;;0.00;100.00
11038;BME280;5572;49.540;11.932;2023-02-15T01:16:25;99577.28;;;0.06;100.00
11038;BME280;5572;49.540;11.932;2023-02-15T01:18:54;99537.09;;;-0.08;100.00
11038;BME280;5572;49.540;11.932;2023-02-15T01:21:23;99534.91;;;-0.22;100.00
11038;BME280;5572;49.540;11.932;2023-02-15T01:23:51;99545.25;;;-0.19;100.00
11038;BME280;5572;49.540;11.932;2023-02-15T01:26:18;99560.78;;;0.02;100.00
11038;BME280;5572;49.540;11.932;2023-02-15T01:28:45;99565.13;;;0.21;100.00
11038;BME280;5572;49.540;11.932;2023-02-15T01:31:13;99523.34;;;0.13;100.00
11038;BME280;5572;49.540;11.932;2023-02-15T01:33:44;99510.75;;;-0.02;100.00
11038;BME280;5572;49.540;11.932;2023-02-15T01:36:16;99487.94;;;-0.22;100.00
11038;BME280;5572;49.540;11.932;2023-02-15T01:38:43;99501.47;;;-0.15;100.00
11038;BME280;5572;49.540;11.932;2023-02-15T01:41:10;99495.00;;;-0.13;100.00
11038;BME280;5572;49.540;11.932;2023-02-15T01:43:52;99471.91;;;-0.30;100.00
11038;BME280;5572;49.540;11.932;2023-02-15T01:46:24;99519.16;;;0.11;100.00
11038;BME280;5572;49.540;11.932;2023-02-15T01:48:56;99496.66;;;0.05;100.00
11038;BME280;5572;49.540;11.932;2023-02-15T01:51:30;99488.84;;;0.04;100.00
11038;BME280;5572;49.540;11.932;2023-02-15T01:54:02;99467.59;;;0.04;100.00
11038;BME280;5572;49.540;11.932;2023-02-15T01:56:32;99463.78;;;0.06;100.00
11038;BME280;5572;49.540;11.932;2023-02-15T01:59:03;99462.44;;;0.20;100.00
11038;BME280;5572;49.540;11.932;2023-02-15T02:01:32;99439.03;;;0.06;100.00
11038;BME280;5572;49.540;11.932;2023-02-15T02:04:02;99408.88;;;-0.20;100.00
11038;BME280;5572;49.540;11.932;2023-02-15T02:06:38;99429.16;;;-0.19;100.00
11038;BME280;5572;49.540;11.932;2023-02-15T02:09:24;99406.78;;;-0.34;100.00
11038;BME280;5572;49.540;11.932;2023-02-15T02:11:56;99433.66;;;-0.19;100.00
11038;BME280;5572;49.540;11.932;2023-02-15T02:14:25;99427.88;;;-0.32;100.00
11038;BME280;5572;49.540;11.932;2023-02-15T02:16:58;99421.97;;;-0.26;100.00
11038;BME280;5572;49.540;11.932;2023-02-15T02:19:52;99435.56;;;-0.29;100.00
11038;BME280;5572;49.540;11.932;2023-02-15T02:22:53;99445.41;;;-0.04;100.00
11038;BME280;5572;49.540;11.932;2023-02-15T02:31:48;99421.09;;;0.08;100.00
11038;BME280;5572;49.540;11.932;2023-02-15T02:34:28;99399.00;;;0.07;100.00
11038;BME280;5572;49.540;11.932;2023-02-15T02:36:58;99391.91;;;0.16;100.00
11038;BME280;5572;49.540;11.932;2023-02-15T02:39:36;99356.22;;;0.01;100.00
11038;BME280;5572;49.540;11.932;2023-02-15T02:42:12;99337.31;;;-0.21;100.00
11038;BME280;5572;49.540;11.932;2023-02-15T02:44:48;99328.53;;;-0.39;100.00
11038;BME280;5572;49.540;11.932;2023-02-15T02:47:21;99345.31;;;-0.13;100.00
11038;BME280;5572;49.540;11.932;2023-02-15T02:49:58;99343.81;;;-0.16;100.00
11038;BME280;5572;49.540;11.932;2023-02-15T02:52:38;99320.03;;;-0.25;100.00
11038;BME280;5572;49.540;11.932;2023-02-15T02:55:12;99327.31;;;-0.02;100.00
11038;BME280;5572;49.540;11.932;2023-02-15T02:57:45;99311.94;;;-0.16;100.00
11038;BME280;5572;49.540;11.932;2023-02-15T03:00:14;99270.78;;;-0.37;100.00
11038;BME280;5572;49.540;11.932;2023-02-15T03:02:44;99277.84;;;-0.46;100.00
11038;BME280;5572;49.540;11.932;2023-02-15T03:05:19;99278.50;;;-0.26;100.00
11038;BME280;5572;49.540;11.932;2023-02-15T03:10:18;99267.00;;;-0.27;100.00
11038;BME280;5572;49.540;11.932;2023-02-15T03:12:48;99255.34;;;-0.34;100.00
11038;BME280;5572;49.540;11.932;2023-02-15T03:15:19;99237.22;;;-0.38;100.00
11038;BME280;5572;49.540;11.932;2023-02-15T03:17:49;99225.56;;;-0.45;100.00
11038;BME280;5572;49.540;11.932;2023-02-15T03:20:22;99238.22;;;-0.39;100.00
11038;BME280;5572;49.540;11.932;2023-02-15T03:22:55;99231.22;;;-0.40;100.00
11038;BME280;5572;49.540;11.932;2023-02-15T03:25:26;99234.19;;;-0.43;100.00
11038;BME280;5572;49.540;11.932;2023-02-15T03:28:01;99259.22;;;-0.28;100.00
11038;BME280;5572;49.540;11.932;2023-02-15T03:30:31;99260.88;;;-0.02;100.00
11038;BME280;5572;49.540;11.932;2023-02-15T03:32:59;99250.97;;;0.08;100.00
11038;BME280;5572;49.540;11.932;2023-02-15T03:35:33;99240.63;;;0.05;100.00
11038;BME280;5572;49.540;11.932;2023-02-15T03:38:06;99213.59;;;-0.16;100.00
11038;BME280;5572;49.540;11.932;2023-02-15T03:40:37;99223.53;;;0.07;100.00
11038;BME280;5572;49.540;11.932;2023-02-15T03:43:29;99208.91;;;0.03;100.00
11038;BME280;5572;49.540;11.932;2023-02-15T03:46:04;99191.00;;;-0.20;100.00
11038;BME280;5572;49.540;11.932;2023-02-15T03:48:36;99193.59;;;0.05;100.00
11038;BME280;5572;49.540;11.932;2023-02-15T03:51:08;99202.25;;;0.07;100.00
11038;BME280;5572;49.540;11.932;2023-02-15T03:53:54;99169.31;;;-0.07;100.00
11038;BME280;5572;49.540;11.932;2023-02-15T03:56:22;99132.22;;;-0.50;100.00
11038;BME280;5572;49.540;11.932;2023-02-15T03:58:49;99130.22;;;-0.56;100.00
11038;BME280;5572;49.540;11.932;2023-02-15T04:01:34;99136.50;;;-0.57;100.00
11038;BME280;5572;49.540;11.932;2023-02-15T04:04:26;99184.06;;;-0.13;100.00
11038;BME280;5572;49.540;11.932;2023-02-15T04:06:56;99174.66;;;0.00;100.00
11038;BME280;5572;49.540;11.932;2023-02-15T04:09:23;99135.38;;;-0.13;100.00
11038;BME280;5572;49.540;11.932;2023-02-15T04:12:07;99121.44;;;-0.15;100.00
11038;BME280;5572;49.540;11.932;2023-02-15T04:14:37;99117.25;;;-0.26;100.00
11038;BME280;5572;49.540;11.932;2023-02-15T04:17:22;99096.25;;;-0.37;100.00
11038;BME280;5572;49.540;11.932;2023-02-15T04:19:49;99108.06;;;-0.31;100.00
11038;BME280;5572;49.540;11.932;2023-02-15T04:22:34;99082.47;;;-0.40;100.00
11038;BME280;5572;49.540;11.932;2023-02-15T04:25:19;99102.16;;;-0.25;100.00
11038;BME280;5572;49.540;11.932;2023-02-15T04:27:47;99071.19;;;-0.34;100.00
11038;BME280;5572;49.540;11.932;2023-02-15T04:30:16;99085.16;;;-0.32;100.00
11038;BME280;5572;49.540;11.932;2023-02-15T04:32:44;99069.84;;;-0.46;100.00
11038;BME280;5572;49.540;11.932;2023-02-15T04:35:11;99095.81;;;-0.24;100.00
11038;BME280;5572;49.540;11.932;2023-02-15T04:37:40;99096.56;;;-0.06;100.00
11038;BME280;5572;49.540;11.932;2023-02-15T04:40:08;99087.13;;;-0.01;100.00
11038;BME280;5572;49.540;11.932;2023-02-15T04:42:35;99067.66;;;-0.09;100.00
11038;BME280;5572;49.540;11.932;2023-02-15T04:45:02;99057.84;;;-0.09;100.00
11038;BME280;5572;49.540;11.932;2023-02-15T04:47:29;99032.91;;;-0.24;100.00
11038;BME280;5572;49.540;11.932;2023-02-15T04:49:56;99024.06;;;-0.32;100.00
11038;BME280;5572;49.540;11.932;2023-02-15T04:52:23;99008.09;;;-0.48;100.00
11038;BME280;5572;49.540;11.932;2023-02-15T04:54:52;99030.84;;;-0.38;100.00
11038;BME280;5572;49.540;11.932;2023-02-15T04:57:18;99037.19;;;-0.31;100.00
11038;BME280;5572;49.540;11.932;2023-02-15T04:59:45;99042.19;;;-0.20;100.00
11038;BME280;5572;49.540;11.932;2023-02-15T05:02:12;99048.88;;;-0.08;100.00
11038;BME280;5572;49.540;11.932;2023-02-15T05:04:39;99036.44;;;0.00;100.00
11038;BME280;5572;49.540;11.932;2023-02-15T05:07:06;99031.31;;;-0.01;100.00
11038;BME280;5572;49.540;11.932;2023-02-15T05:09:32;98995.03;;;-0.26;100.00
11038;BME280;5572;49.540;11.932;2023-02-15T05:12:01;98997.19;;;-0.29;100.00
11038;BME280;5572;49.540;11.932;2023-02-15T05:14:27;98998.66;;;-0.27;100.00
11038;BME280;5572;49.540;11.932;2023-02-15T05:16:57;98955.56;;;-0.62;100.00
11038;BME280;5572;49.540;11.932;2023-02-15T05:19:27;98985.81;;;-0.55;100.00
11038;BME280;5572;49.540;11.932;2023-02-15T05:21:53;98998.94;;;-0.46;100.00
11038;BME280;5572;49.540;11.932;2023-02-15T05:24:20;98994.31;;;-0.44;100.00
11038;BME280;5572;49.540;11.932;2023-02-15T05:27:06;99022.09;;;-0.22;100.00
11038;BME280;5572;49.540;11.932;2023-02-15T05:29:50;98995.00;;;-0.42;100.00
11038;BME280;5572;49.540;11.932;2023-02-15T05:32:17;99008.91;;;-0.48;100.00
11038;BME280;5572;49.540;11.932;2023-02-15T05:34:44;99036.03;;;-0.36;100.00
11038;BME280;5572;49.540;11.932;2023-02-15T05:37:11;99011.25;;;-0.45;100.00
11038;BME280;5572;49.540;11.932;2023-02-15T05:39:38;99027.19;;;-0.37;100.00
11038;BME280;5572;49.540;11.932;2023-02-15T05:42:06;98959.84;;;-0.77;100.00
11038;BME280;5572;49.540;11.932;2023-02-15T05:44:33;98988.72;;;-0.74;100.00
11038;BME280;5572;49.540;11.932;2023-02-15T05:47:00;99011.47;;;-0.72;100.00
11038;BME280;5572;49.540;11.932;2023-02-15T05:49:28;99009.63;;;-0.79;100.00
11038;BME280;5572;49.540;11.932;2023-02-15T05:52:02;99029.25;;;-0.97;100.00
11038;BME280;5572;49.540;11.932;2023-02-15T05:54:29;99060.22;;;-0.81;100.00
11038;BME280;5572;49.540;11.932;2023-02-15T05:56:56;99085.81;;;-0.72;100.00
11038;BME280;5572;49.540;11.932;2023-02-15T05:59:24;99123.94;;;-0.47;100.00
11038;BME280;5572;49.540;11.932;2023-02-15T06:01:54;99075.34;;;-0.73;100.00
11038;BME280;5572;49.540;11.932;2023-02-15T06:04:20;99088.81;;;-0.92;100.00
11038;BME280;5572;49.540;11.932;2023-02-15T06:06:47;99117.66;;;-0.97;100.00
11038;BME280;5572;49.540;11.932;2023-02-15T06:09:14;99132.50;;;-0.87;100.00
11038;BME280;5572;49.540;11.932;2023-02-15T06:11:43;99188.38;;;-0.45;100.00
11038;BME280;5572;49.540;11.932;2023-02-15T06:14:10;99152.53;;;-0.67;100.00
11038;BME280;5572;49.540;11.932;2023-02-15T06:16:39;99201.97;;;-0.23;100.00
11038;BME280;5572;49.540;11.932;2023-02-15T06:19:06;99181.69;;;-0.24;100.00
11038;BME280;5572;49.540;11.932;2023-02-15T06:21:33;99149.69;;;-0.40;100.00
11038;BME280;5572;49.540;11.932;2023-02-15T06:24:00;99152.91;;;-0.36;100.00
11038;BME280;5572;49.540;11.932;2023-02-15T06:26:26;99091.69;;;-0.86;100.00
11038;BME280;5572;49.540;11.932;2023-02-15T06:28:53;99111.25;;;-0.87;100.00
11038;BME280;5572;49.540;11.932;2023-02-15T06:31:20;99158.22;;;-0.62;100.00
11038;BME280;5572;49.540;11.932;2023-02-15T06:33:57;99144.13;;;-0.80;100.00
11038;BME280;5572;49.540;11.932;2023-02-15T06:36:26;99154.13;;;-0.56;100.00
11038;BME280;5572;49.540;11.932;2023-02-15T06:38:53;99134.38;;;-0.79;100.00
11038;BME280;5572;49.540;11.932;2023-02-15T06:41:20;99152.19;;;-0.72;100.00
11038;BME280;5572;49.540;11.932;2023-02-15T06:43:47;99175.81;;;-0.61;100.00
11038;BME280;5572;49.540;11.932;2023-02-15T06:46:14;99173.69;;;-0.32;100.00
11038;BME280;5572;49.540;11.932;2023-02-15T06:48:40;99129.25;;;-0.47;100.00
11038;BME280;5572;49.540;11.932;2023-02-15T06:51:08;99137.47;;;-0.33;100.00
11038;BME280;5572;49.540;11.932;2023-02-15T06:53:35;99109.41;;;-0.35;100.00
11038;BME280;5572;49.540;11.932;2023-02-15T06:56:04;99068.78;;;-0.53;100.00
11038;BME280;5572;49.540;11.932;2023-02-15T06:58:32;99069.69;;;-0.45;100.00
11038;BME280;5572;49.540;11.932;2023-02-15T07:00:59;99032.56;;;-0.62;100.00
11038;BME280;5572;49.540;11.932;2023-02-15T07:03:38;99042.09;;;-0.52;100.00
11038;BME280;5572;49.540;11.932;2023-02-15T07:06:05;99030.78;;;-0.54;100.00
11038;BME280;5572;49.540;11.932;2023-02-15T07:08:45;99019.31;;;-0.54;100.00
11038;BME280;5572;49.540;11.932;2023-02-15T07:11:11;99005.34;;;-0.64;100.00
11038;BME280;5572;49.540;11.932;2023-02-15T07:14:11;98986.75;;;-0.64;100.00
11038;BME280;5572;49.540;11.932;2023-02-15T07:16:37;99001.09;;;-0.49;100.00
11038;BME280;5572;49.540;11.932;2023-02-15T07:19:07;98965.31;;;-0.79;100.00
11038;BME280;5572;49.540;11.932;2023-02-15T07:21:33;98980.66;;;-0.57;100.00
11038;BME280;5572;49.540;11.932;2023-02-15T07:24:02;98981.84;;;-0.51;100.00
11038;BME280;5572;49.540;11.932;2023-02-15T07:26:31;98992.38;;;-0.26;100.00
11038;BME280;5572;49.540;11.932;2023-02-15T07:28:58;98958.44;;;-0.40;100.00
11038;BME280;5572;49.540;11.932;2023-02-15T07:31:24;98961.34;;;-0.17;100.00
11038;BME280;5572;49.540;11.932;2023-02-15T07:33:51;98945.41;;;-0.17;100.00
11038;BME280;5572;49.540;11.932;2023-02-15T07:36:18;98945.25;;;0.16;100.00
11038;BME280;5572;49.540;11.932;2023-02-15T07:38:44;98940.06;;;0.38;100.00
11038;BME280;5572;49.540;11.932;2023-02-15T07:41:14;98926.28;;;0.43;100.00
11038;BME280;5572;49.540;11.932;2023-02-15T07:43:43;98894.41;;;0.27;100.00
11038;BME280;5572;49.540;11.932;2023-02-15T07:46:11;98861.66;;;0.18;100.00
11038;BME280;5572;49.540;11.932;2023-02-15T07:48:39;98867.09;;;0.41;100.00
11038;BME280;5572;49.540;11.932;2023-02-15T07:51:08;98821.56;;;0.36;100.00
11038;BME280;5572;49.540;11.932;2023-02-15T07:53:35;98796.16;;;0.33;100.00
11038;BME280;5572;49.540;11.932;2023-02-15T07:56:04;98795.28;;;0.49;100.00
11038;BME280;5572;49.540;11.932;2023-02-15T07:58:33;98760.22;;;0.37;100.00
11038;BME280;5572;49.540;11.932;2023-02-15T08:01:20;98726.13;;;0.41;100.00
11038;BME280;5572;49.540;11.932;2023-02-15T08:03:47;98704.66;;;0.50;100.00
11038;BME280;5572;49.540;11.932;2023-02-15T08:06:14;98686.44;;;0.70;100.00
11038;BME280;5572;49.540;11.932;2023-02-15T08:08:51;98655.53;;;0.61;100.00
11038;BME280;5572;49.540;11.932;2023-02-15T08:11:38;98612.81;;;0.40;100.00
11038;BME280;5572;49.540;11.932;2023-02-15T08:14:09;98558.91;;;0.23;100.00
11038;BME280;5572;49.540;11.932;2023-02-15T08:16:38;98536.78;;;0.23;100.00
11038;BME280;5572;49.540;11.932;2023-02-15T08:19:07;98506.13;;;0.35;100.00
11038;BME280;5572;49.540;11.932;2023-02-15T08:21:35;98461.66;;;0.29;100.00
11038;BME280;5572;49.540;11.932;2023-02-15T08:24:04;98445.81;;;-0.09;100.00
11038;BME280;5572;49.540;11.932;2023-02-15T08:26:32;98431.66;;;-0.02;100.00
11038;BME280;5572;49.540;11.932;2023-02-15T08:28:59;98409.41;;;-0.01;100.00
11038;BME280;5572;49.540;11.932;2023-02-15T08:31:28;98412.41;;;0.33;100.00
11038;BME280;5572;49.540;11.932;2023-02-15T08:33:56;98401.44;;;0.50;100.00
11038;BME280;5572;49.540;11.932;2023-02-15T08:36:26;98360.13;;;0.25;100.00
11038;BME280;5572;49.540;11.932;2023-02-15T08:38:54;98351.66;;;0.44;100.00
11038;BME280;5572;49.540;11.932;2023-02-15T08:41:22;98304.66;;;-0.06;100.00
11038;BME280;5572;49.540;11.932;2023-02-15T08:44:15;98304.03;;;0.49;100.00
11038;BME280;5572;49.540;11.932;2023-02-15T08:46:46;98306.13;;;0.68;100.00
11038;BME280;5572;49.540;11.932;2023-02-15T08:49:16;98260.97;;;0.75;100.00
11038;BME280;5572;49.540;11.932;2023-02-15T08:51:43;98251.25;;;1.02;100.00
11038;BME280;5572;49.540;11.932;2023-02-15T08:54:13;98185.84;;;0.73;100.00
11038;BME280;5572;49.540;11.932;2023-02-15T08:56:41;98167.00;;;1.09;100.00
11038;BME280;5572;49.540;11.932;2023-02-15T08:59:12;98121.75;;;0.88;100.00
11038;BME280;5572;49.540;11.932;2023-02-15T09:01:39;98105.28;;;1.06;100.00
11038;BME280;5572;49.540;11.932;2023-02-15T09:04:08;98108.91;;;1.19;100.00
11038;BME280;5572;49.540;11.932;2023-02-15T09:06:35;98087.06;;;1.30;100.00
11038;BME280;5572;49.540;11.932;2023-02-15T09:09:03;98087.16;;;1.43;100.00
11038;BME280;5572;49.540;11.932;2023-02-15T09:11:33;98060.56;;;1.50;100.00
11038;BME280;5572;49.540;11.932;2023-02-15T09:14:01;97977.78;;;1.11;100.00
11038;BME280;5572;49.540;11.932;2023-02-15T09:16:30;98039.28;;;1.56;100.00
11038;BME280;5572;49.540;11.932;2023-02-15T09:18:58;98011.22;;;1.20;100.00
11038;BME280;5572;49.540;11.932;2023-02-15T09:21:28;98036.09;;;1.73;100.00
11038;BME280;5572;49.540;11.932;2023-02-15T09:23:56;98056.63;;;1.79;100.00
11038;BME280;5572;49.540;11.932;2023-02-15T09:26:25;98034.00;;;1.63;100.00
11038;BME280;5572;49.540;11.932;2023-02-15T09:28:54;98042.72;;;1.90;100.00
11038;BME280;5572;49.540;11.932;2023-02-15T09:31:23;98024.81;;;1.71;100.00
11038;BME280;5572;49.540;11.932;2023-02-15T09:33:50;98019.66;;;1.64;100.00
11038;BME280;5572;49.540;11.932;2023-02-15T09:36:19;98031.69;;;2.06;100.00
11038;BME280;5572;49.540;11.932;2023-02-15T09:38:54;97997.91;;;1.67;100.00
11038;BME280;5572;49.540;11.932;2023-02-15T09:41:35;97994.31;;;1.80;100.00
11038;BME280;5572;49.540;11.932;2023-02-15T09:44:13;97983.44;;;1.88;100.00
11038;BME280;5572;49.540;11.932;2023-02-15T09:47:02;97957.25;;;2.05;100.00
11038;BME280;5572;49.540;11.932;2023-02-15T09:49:40;97923.41;;;2.05;100.00
11038;BME280;5572;49.540;11.932;2023-02-15T09:52:26;97907.66;;;1.38;100.00
11038;BME280;5572;49.540;11.932;2023-02-15T09:55:10;97890.22;;;1.35;100.00
11038;BME280;5572;49.540;11.932;2023-02-15T09:57:43;97871.28;;;1.11;100.00
11038;BME280;5572;49.540;11.932;2023-02-15T10:00:23;97879.91;;;1.79;100.00
11038;BME280;5572;49.540;11.932;2023-02-15T10:03:08;97863.91;;;1.85;100.00
11038;BME280;5572;49.540;11.932;2023-02-15T10:05:45;97890.13;;;1.69;100.00
11038;BME280;5572;49.540;11.932;2023-02-15T10:08:51;97857.25;;;0.83;100.00
11038;BME280;5572;49.540;11.932;2023-02-15T10:11:40;97844.31;;;1.27;100.00
11038;BME280;5572;49.540;11.932;2023-02-15T10:14:35;97831.19;;;1.25;100.00
11038;BME280;5572;49.540;11.932;2023-02-15T10:17:19;97804.75;;;1.11;100.00
11038;BME280;5572;49.540;11.932;2023-02-15T10:20:02;97819.09;;;1.16;100.00
11038;BME280;5572;49.540;11.932;2023-02-15T10:22:47;97813.34;;;1.13;100.00
11038;BME280;5572;49.540;11.932;2023-02-15T10:25:33;97788.44;;;1.46;100.00
11038;BME280;5572;49.540;11.932;2023-02-15T10:28:13;97793.19;;;1.64;100.00
11038;BME280;5572;49.540;11.932;2023-02-15T10:30:46;97791.06;;;1.27;100.00
11038;BME280;5572;49.540;11.932;2023-02-15T10:33:23;97764.84;;;1.37;100.00
11038;BME280;5572;49.540;11.932;2023-02-15T10:36:02;97770.63;;;1.92;100.00
11038;BME280;5572;49.540;11.932;2023-02-15T10:38:36;97752.78;;;1.67;100.00
11038;BME280;5572;49.540;11.932;2023-02-15T10:41:17;97750.75;;;1.62;100.00
11038;BME280;5572;49.540;11.932;2023-02-15T10:44:03;97712.22;;;1.52;100.00
11038;BME280;5572;49.540;11.932;2023-02-15T10:46:45;97707.72;;;1.84;100.00
11038;BME280;5572;49.540;11.932;2023-02-15T10:49:26;97692.34;;;1.35;100.00
11038;BME280;5572;49.540;11.932;2023-02-15T10:52:12;97692.94;;;1.17;100.00
11038;BME280;5572;49.540;11.932;2023-02-15T10:54:49;97699.31;;;1.49;100.00
11038;BME280;5572;49.540;11.932;2023-02-15T10:57:24;97678.00;;;1.62;100.00
11038;BME280;5572;49.540;11.932;2023-02-15T11:00:07;97648.31;;;1.52;100.00
11038;BME280;5572;49.540;11.932;2023-02-15T11:02:53;97662.63;;;1.64;100.00
11038;BME280;5572;49.540;11.932;2023-02-15T11:05:36;97642.44;;;2.00;100.00
11038;BME280;5572;49.540;11.932;2023-02-15T11:08:09;97629.56;;;1.90;100.00
11038;BME280;5572;49.540;11.932;2023-02-15T11:10:39;97588.72;;;1.07;100.00
11038;BME280;5572;49.540;11.932;2023-02-15T11:13:13;97570.28;;;0.80;100.00
11038;BME280;5572;49.540;11.932;2023-02-15T11:15:55;97566.81;;;0.92;100.00
11038;BME280;5572;49.540;11.932;2023-02-15T11:18:32;97544.88;;;1.23;100.00
11038;BME280;5572;49.540;11.932;2023-02-15T11:21:06;97524.63;;;1.02;100.00
11038;BME280;5572;49.540;11.932;2023-02-15T11:23:43;97499.38;;;1.44;100.00
11038;BME280;5572;49.540;11.932;2023-02-15T11:26:14;97510.44;;;1.28;100.00
11038;BME280;5572;49.540;11.932;2023-02-15T11:28:48;97529.88;;;2.04;100.00
11038;BME280;5572;49.540;11.932;2023-02-15T11:31:20;97490.13;;;1.90;100.00
11038;BME280;5572;49.540;11.932;2023-02-15T11:33:50;97504.59;;;2.13;100.00
11038;BME280;5572;49.540;11.932;2023-02-15T11:36:21;97486.16;;;2.05;100.00
11038;BME280;5572;49.540;11.932;2023-02-15T11:38:54;97495.72;;;2.81;100.00
11038;BME280;5572;49.540;11.932;2023-02-15T11:41:27;97498.50;;;3.10;100.00
11038;BME280;5572;49.540;11.932;2023-02-15T11:43:59;97468.22;;;3.40;100.00
11038;BME280;5572;49.540;11.932;2023-02-15T11:46:30;97476.44;;;3.75;100.00
11038;BME280;5572;49.540;11.932;2023-02-15T11:48:57;97461.81;;;3.59;100.00
11038;BME280;5572;49.540;11.932;2023-02-15T11:51:25;97448.97;;;3.68;100.00
11038;BME280;5572;49.540;11.932;2023-02-15T11:53:54;97451.25;;;4.12;100.00
11038;BME280;5572;49.540;11.932;2023-02-15T11:56:22;97436.22;;;3.34;100.00
11038;BME280;5572;49.540;11.932;2023-02-15T11:58:53;97420.50;;;3.26;100.00
11038;BME280;5572;49.540;11.932;2023-02-15T12:01:27;97414.31;;;3.08;100.00
11038;BME280;5572;49.540;11.932;2023-02-15T12:03:59;97377.09;;;3.31;100.00
11038;BME280;5572;49.540;11.932;2023-02-15T12:06:32;97351.41;;;3.30;100.00
11038;BME280;5572;49.540;11.932;2023-02-15T12:09:03;97335.66;;;3.39;100.00
11038;BME280;5572;49.540;11.932;2023-02-15T12:11:35;97322.94;;;3.24;100.00
11038;BME280;5572;49.540;11.932;2023-02-15T12:14:04;97296.66;;;3.21;100.00
11038;BME280;5572;49.540;11.932;2023-02-15T12:16:41;97285.75;;;3.51;100.00
11038;BME280;5572;49.540;11.932;2023-02-15T12:19:24;97265.28;;;3.45;100.00
11038;BME280;5572;49.540;11.932;2023-02-15T12:21:54;97253.47;;;3.64;100.00
11038;BME280;5572;49.540;11.932;2023-02-15T12:24:26;97217.84;;;3.30;100.00
11038;BME280;5572;49.540;11.932;2023-02-15T12:26:59;97211.47;;;3.01;100.00
11038;BME280;5572;49.540;11.932;2023-02-15T12:29:29;97206.44;;;3.86;100.00
11038;BME280;5572;49.540;11.932;2023-02-15T12:31:57;97171.00;;;4.02;100.00
11038;BME280;5572;49.540;11.932;2023-02-15T12:34:29;97156.63;;;2.87;100.00
11038;BME280;5572;49.540;11.932;2023-02-15T12:37:02;97144.13;;;3.51;100.00
11038;BME280;5572;49.540;11.932;2023-02-15T12:39:34;97147.28;;;4.06;100.00
11038;BME280;5572;49.540;11.932;2023-02-15T12:42:04;97125.28;;;4.04;100.00
11038;BME280;5572;49.540;11.932;2023-02-15T12:44:32;97122.25;;;4.23;100.00
11038;BME280;5572;49.540;11.932;2023-02-15T12:47:02;97108.34;;;3.87;100.00
11038;BME280;5572;49.540;11.932;2023-02-15T12:49:32;97108.81;;;3.49;100.00
11038;BME280;5572;49.540;11.932;2023-02-15T12:52:00;97105.75;;;3.35;100.00
11038;BME280;5572;49.540;11.932;2023-02-15T12:54:36;97106.63;;;3.58;100.00
11038;BME280;5572;49.540;11.932;2023-02-15T12:57:21;97119.00;;;3.30;100.00
11038;BME280;5572;49.540;11.932;2023-02-15T12:59:49;97120.28;;;3.50;100.00
11038;BME280;5572;49.540;11.932;2023-02-15T13:02:22;97104.72;;;3.36;100.00
11038;BME280;5572;49.540;11.932;2023-02-15T13:04:51;97115.19;;;3.37;100.00
11038;BME280;5572;49.540;11.932;2023-02-15T13:07:19;97114.59;;;3.24;100.00
11038;BME280;5572;49.540;11.932;2023-02-15T13:09:47;97107.50;;;3.18;100.00
11038;BME280;5572;49.540;11.932;2023-02-15T13:12:19;97087.75;;;3.07;100.00
11038;BME280;5572;49.540;11.932;2023-02-15T13:14:48;97106.59;;;3.24;100.00
11038;BME280;5572;49.540;11.932;2023-02-15T13:17:18;97110.88;;;3.36;100.00
11038;BME280;5572;49.540;11.932;2023-02-15T13:19:49;97120.97;;;2.53;100.00
11038;BME280;5572;49.540;11.932;2023-02-15T13:22:20;97127.88;;;2.60;100.00
11038;BME280;5572;49.540;11.932;2023-02-15T13:24:51;97145.78;;;2.71;100.00
11038;BME280;5572;49.540;11.932;2023-02-15T13:27:22;97110.22;;;2.59;100.00
11038;BME280;5572;49.540;11.932;2023-02-15T13:29:53;97118.59;;;2.92;100.00